Time;durP1;ratioP1;P1;durP2;ratioP2;P2;SDS_P1;SDS_P2;PMS_P1;PMS_P2;Temp;Humidity;BMP_temperature;BMP_pressure;BME280_temperature;BME280_humidity;BME280_pressure;Samples;Min_cycle;Max_cycle;Signal;HPM_P1;HPM_P2
2021/04/29 00:01:40;;;;;;;69.30;12.63;;;11.30;1.00;;;;;;5091695;28;20456;-66
2021/04/29 00:04:07;;;;;;;66.40;12.30;;;11.20;1.00;;;;;;5090992;28;20487;-66
2021/04/29 00:06:33;;;;;;;65.37;13.00;;;11.20;1.00;;;;;;5091143;28;20450;-67
2021/04/29 00:08:59;;;;;;;67.03;12.80;;;11.20;1.00;;;;;;5091574;28;20535;-66
2021/04/29 00:11:25;;;;;;;68.40;13.17;;;11.20;1.00;;;;;;5091383;28;20549;-67
2021/04/29 00:13:53;;;;;;;68.13;12.87;;;11.20;1.00;;;;;;5091132;28;20537;-67
2021/04/29 00:16:19;;;;;;;65.27;13.33;;;11.20;1.00;;;;;;5091373;28;20611;-66
2021/04/29 00:18:46;;;;;;;68.77;14.70;;;11.20;1.00;;;;;;5073490;28;20447;-66
2021/04/29 00:21:12;;;;;;;69.20;14.13;;;11.10;1.00;;;;;;5070879;28;20501;-66
2021/04/29 00:23:38;;;;;;;65.83;13.10;;;11.10;1.00;;;;;;5070886;28;20453;-66
2021/04/29 00:26:05;;;;;;;68.00;12.90;;;11.10;1.00;;;;;;5071416;28;20535;-68
2021/04/29 00:28:31;;;;;;;65.57;13.40;;;11.10;1.00;;;;;;5071144;28;20535;-66
2021/04/29 00:30:58;;;;;;;67.57;14.60;;;11.10;1.00;;;;;;5071089;28;20486;-66
2021/04/29 00:33:25;;;;;;;67.00;13.90;;;11.00;1.00;;;;;;5070836;28;20535;-67
2021/04/29 00:35:51;;;;;;;67.80;13.20;;;11.00;1.00;;;;;;5070693;28;20494;-66
2021/04/29 00:38:18;;;;;;;66.97;12.97;;;11.10;1.00;;;;;;5071004;28;20534;-66
2021/04/29 00:40:45;;;;;;;70.50;14.70;;;11.10;1.00;;;;;;5070869;28;20494;-67
2021/04/29 00:43:12;;;;;;;66.27;13.50;;;11.10;1.00;;;;;;5070758;28;20517;-67
2021/04/29 00:45:38;;;;;;;67.57;14.40;;;11.10;1.00;;;;;;5070889;28;20533;-66
2021/04/29 00:48:06;;;;;;;68.70;14.63;;;11.20;1.00;;;;;;5069955;28;20451;-66
2021/04/29 00:50:33;;;;;;;67.77;12.73;;;11.10;1.00;;;;;;5087217;28;20496;-67
2021/04/29 00:52:59;;;;;;;68.50;14.00;;;11.20;1.00;;;;;;5091076;28;20457;-67
2021/04/29 00:55:26;;;;;;;67.03;13.50;;;11.10;1.00;;;;;;5091012;28;20452;-67
2021/04/29 00:57:52;;;;;;;68.73;14.70;;;11.10;1.00;;;;;;5091021;28;20533;-67
2021/04/29 01:00:21;;;;;;;72.43;14.07;;;11.10;1.00;;;;;;5091026;28;20568;-67
2021/04/29 01:02:50;;;;;;;70.13;14.47;;;11.10;1.00;;;;;;5090536;28;20529;-67
2021/04/29 01:05:22;;;;;;;70.60;14.90;;;11.10;1.00;;;;;;5090931;28;20442;-67
2021/04/29 01:07:52;;;;;;;70.33;15.00;;;11.10;1.00;;;;;;5090841;28;20533;-67
2021/04/29 01:10:25;;;;;;;66.80;13.50;;;11.10;1.00;;;;;;5090970;28;20513;-66
2021/04/29 01:12:58;;;;;;;70.50;14.93;;;11.20;1.00;;;;;;5090603;28;20942;-67
2021/04/29 01:15:26;;;;;;;66.50;14.27;;;11.20;1.00;;;;;;5090593;28;20442;-67
2021/04/29 01:17:54;;;;;;;72.90;16.07;;;11.20;1.00;;;;;;5091115;28;20541;-67
2021/04/29 01:20:29;;;;;;;67.47;14.73;;;11.20;1.00;;;;;;5087338;28;20513;-67
2021/04/29 01:23:11;;;;;;;68.10;15.60;;;11.30;1.00;;;;;;5090436;28;20448;-67
2021/04/29 01:25:41;;;;;;;75.93;15.37;;;11.30;1.00;;;;;;5094466;28;20445;-67
2021/04/29 01:28:09;;;;;;;69.10;15.40;;;11.30;1.00;;;;;;5094709;28;20457;-67
2021/04/29 01:30:41;;;;;;;69.47;15.57;;;11.40;1.00;;;;;;5094360;28;20908;-66
2021/04/29 01:33:08;;;;;;;70.30;15.23;;;11.40;1.00;;;;;;5093921;28;20525;-67
2021/04/29 01:35:34;;;;;;;70.57;14.63;;;11.40;1.00;;;;;;5094052;28;20533;-67
2021/04/29 01:38:01;;;;;;;69.87;15.37;;;11.50;1.00;;;;;;5094347;28;20458;-67
2021/04/29 01:40:27;;;;;;;65.80;13.03;;;11.50;1.00;;;;;;5093987;28;20462;-66
2021/04/29 01:42:54;;;;;;;67.50;14.00;;;11.50;1.00;;;;;;5093951;28;20525;-67
2021/04/29 01:45:21;;;;;;;69.60;14.53;;;11.50;1.00;;;;;;5093790;28;20449;-67
2021/04/29 01:47:48;;;;;;;68.20;14.60;;;11.50;1.00;;;;;;5094349;28;20940;-67
2021/04/29 01:50:15;;;;;;;70.60;14.77;;;11.50;1.00;;;;;;5093793;28;20516;-67
2021/04/29 01:52:42;;;;;;;67.50;13.90;;;11.50;1.00;;;;;;5090825;28;20543;-67
2021/04/29 01:55:10;;;;;;;66.07;12.90;;;11.60;1.00;;;;;;5093623;28;20877;-67
2021/04/29 01:57:36;;;;;;;65.83;12.00;;;11.50;1.00;;;;;;5094182;28;20537;-67
2021/04/29 02:00:07;;;;;;;64.03;11.80;;;11.60;1.00;;;;;;5093720;28;20477;-67
2021/04/29 02:02:34;;;;;;;67.40;13.27;;;11.60;1.00;;;;;;5093630;28;20446;-67
2021/04/29 02:05:00;;;;;;;67.87;14.80;;;11.60;1.00;;;;;;5093448;28;20450;-67
2021/04/29 02:07:27;;;;;;;72.30;14.40;;;11.60;1.00;;;;;;5093389;28;20548;-66
2021/04/29 02:09:53;;;;;;;66.47;13.20;;;11.60;1.00;;;;;;5093512;28;21041;-67
2021/04/29 02:12:20;;;;;;;68.77;13.03;;;11.60;1.00;;;;;;5093394;28;20472;-67
2021/04/29 02:14:48;;;;;;;65.97;12.57;;;11.60;1.00;;;;;;5093483;28;20493;-67
2021/04/29 02:17:22;;;;;;;67.70;14.40;;;11.70;1.00;;;;;;5093244;28;20449;-67
2021/04/29 02:19:50;;;;;;;65.17;12.67;;;11.70;1.00;;;;;;5093175;28;20458;-67
2021/04/29 02:22:18;;;;;;;70.40;14.47;;;11.70;1.00;;;;;;5089367;28;20973;-67
2021/04/29 02:24:46;;;;;;;68.77;13.73;;;11.70;1.00;;;;;;5092845;28;21012;-67
2021/04/29 02:27:13;;;;;;;67.13;14.37;;;11.70;1.00;;;;;;5093117;28;20549;-67
2021/04/29 02:29:42;;;;;;;70.57;14.50;;;11.70;1.00;;;;;;5093019;28;20572;-67
2021/04/29 02:32:09;;;;;;;68.40;14.47;;;11.70;1.00;;;;;;5092922;28;20442;-67
2021/04/29 02:34:36;;;;;;;68.90;14.50;;;11.70;1.00;;;;;;5093032;28;20529;-67
2021/04/29 02:37:04;;;;;;;67.37;13.43;;;11.80;1.00;;;;;;5093428;28;20535;-67
2021/04/29 02:39:31;;;;;;;66.83;11.90;;;11.80;1.00;;;;;;5092990;28;20498;-66
2021/04/29 02:41:59;;;;;;;64.57;12.50;;;11.80;1.00;;;;;;5092624;28;20549;-67
2021/04/29 02:44:25;;;;;;;65.80;12.27;;;11.80;1.00;;;;;;5092812;28;20527;-67
2021/04/29 02:46:52;;;;;;;67.10;13.27;;;11.80;1.00;;;;;;5092626;28;20545;-67
2021/04/29 02:49:19;;;;;;;64.90;11.40;;;11.80;1.00;;;;;;5092607;28;20539;-66
2021/04/29 02:51:46;;;;;;;65.67;12.30;;;11.80;1.00;;;;;;5092650;28;20553;-67
2021/04/29 02:54:14;;;;;;;64.60;9.80;;;11.80;1.00;;;;;;5088597;28;20821;-67
2021/04/29 02:56:40;;;;;;;66.57;11.40;;;11.90;1.00;;;;;;5092644;28;20447;-67
2021/04/29 02:59:08;;;;;;;64.10;11.40;;;11.90;1.00;;;;;;5093079;28;20537;-67
2021/04/29 03:01:35;;;;;;;66.50;13.00;;;11.90;1.00;;;;;;5092283;28;20477;-66
2021/04/29 03:04:01;;;;;;;64.97;11.80;;;11.90;1.00;;;;;;5092223;28;20472;-66
2021/04/29 03:06:28;;;;;;;63.57;10.80;;;11.90;1.00;;;;;;5092383;28;20513;-67
2021/04/29 03:08:55;;;;;;;62.33;8.27;;;11.90;1.00;;;;;;5092630;28;20446;-67
2021/04/29 03:11:22;;;;;;;60.47;6.50;;;11.80;1.00;;;;;;5092333;28;20576;-67
2021/04/29 03:13:49;;;;;;;59.17;5.30;;;11.80;1.00;;;;;;5091778;28;20446;-68
2021/04/29 03:16:15;;;;;;;60.97;4.80;;;11.80;1.00;;;;;;5092035;28;20537;-67
2021/04/29 03:18:42;;;;;;;57.70;4.53;;;11.70;1.00;;;;;;5092553;28;20450;-67
2021/04/29 03:21:09;;;;;;;57.67;4.63;;;11.60;1.00;;;;;;5092376;28;20515;-67
2021/04/29 03:23:35;;;;;;;58.67;5.00;;;11.60;1.00;;;;;;5091677;28;20866;-66
2021/04/29 03:26:01;;;;;;;58.90;5.20;;;11.50;1.00;;;;;;5070456;28;20611;-67
2021/04/29 03:28:29;;;;;;;59.40;4.70;;;11.50;1.00;;;;;;5071743;28;20513;-67
2021/04/29 03:30:56;;;;;;;58.27;4.97;;;11.40;1.00;;;;;;5071951;28;21172;-67
2021/04/29 03:33:23;;;;;;;58.47;5.13;;;11.40;1.00;;;;;;5071333;28;20451;-67
2021/04/29 03:35:49;;;;;;;57.67;5.03;;;11.40;1.00;;;;;;5071346;28;20476;-67
2021/04/29 03:38:16;;;;;;;58.50;5.83;;;11.30;1.00;;;;;;5071711;28;20534;-67
2021/04/29 03:40:42;;;;;;;58.70;5.73;;;11.30;1.00;;;;;;5071990;28;20476;-67
2021/04/29 03:43:08;;;;;;;59.27;5.77;;;11.20;1.00;;;;;;5071703;28;20482;-67
2021/04/29 03:45:37;;;;;;;58.50;5.67;;;11.20;1.00;;;;;;5071880;28;20584;-67
2021/04/29 03:48:04;;;;;;;59.80;6.10;;;11.20;1.00;;;;;;5071134;28;20452;-66
2021/04/29 03:50:31;;;;;;;59.00;5.40;;;11.20;1.00;;;;;;5071396;28;20554;-67
2021/04/29 03:52:57;;;;;;;58.17;5.27;;;11.10;1.00;;;;;;5071252;28;20451;-67
2021/04/29 03:55:23;;;;;;;58.30;5.30;;;11.10;1.00;;;;;;5073824;28;20542;-67
2021/04/29 03:57:50;;;;;;;57.80;4.63;;;11.00;1.00;;;;;;5091524;28;20926;-67
2021/04/29 04:00:17;;;;;;;58.87;5.40;;;11.00;1.00;;;;;;5091889;28;20465;-67
2021/04/29 04:02:44;;;;;;;58.80;5.20;;;10.90;1.00;;;;;;5091325;28;20958;-66
2021/04/29 04:05:12;;;;;;;58.00;4.13;;;10.90;1.00;;;;;;5091585;28;20502;-67
2021/04/29 04:07:38;;;;;;;58.03;4.70;;;10.90;1.00;;;;;;5091602;28;20474;-67
2021/04/29 04:10:07;;;;;;;57.20;4.30;;;10.80;1.00;;;;;;5091197;28;20493;-67
2021/04/29 04:12:33;;;;;;;58.67;4.63;;;10.80;1.00;;;;;;5091063;28;20537;-67
2021/04/29 04:15:00;;;;;;;57.47;4.30;;;10.70;1.00;;;;;;5091368;28;20533;-67
2021/04/29 04:17:26;;;;;;;58.00;4.20;;;10.70;1.00;;;;;;5091958;28;20863;-67
2021/04/29 04:19:53;;;;;;;57.53;4.07;;;10.60;1.00;;;;;;5091893;28;20970;-67
2021/04/29 04:22:19;;;;;;;56.70;3.77;;;10.60;1.00;;;;;;5091329;28;20450;-67
2021/04/29 04:24:46;;;;;;;57.80;4.57;;;10.60;1.00;;;;;;5091322;28;20491;-67
2021/04/29 04:27:12;;;;;;;59.73;4.70;;;10.60;1.00;;;;;;5087886;28;20541;-66
2021/04/29 04:29:38;;;;;;;57.60;4.60;;;10.60;1.00;;;;;;5091479;28;21025;-67
2021/04/29 04:32:05;;;;;;;57.47;4.37;;;10.60;1.00;;;;;;5091473;28;20502;-67
2021/04/29 04:34:32;;;;;;;57.30;3.80;;;10.50;1.00;;;;;;5091219;28;20976;-67
2021/04/29 04:36:59;;;;;;;56.73;3.60;;;10.50;1.00;;;;;;5091394;28;20594;-67
2021/04/29 04:39:26;;;;;;;58.87;4.40;;;10.50;1.00;;;;;;5090992;28;20446;-67
2021/04/29 04:41:53;;;;;;;57.30;4.00;;;10.50;1.00;;;;;;5091333;28;20453;-67
2021/04/29 04:44:19;;;;;;;60.63;4.77;;;10.50;1.00;;;;;;5091071;28;20534;-67
2021/04/29 04:46:46;;;;;;;57.70;4.27;;;10.40;1.00;;;;;;5091345;28;20548;-67
2021/04/29 04:49:12;;;;;;;58.13;4.60;;;10.40;1.00;;;;;;5091274;28;20502;-67
2021/04/29 04:51:38;;;;;;;57.60;4.60;;;10.40;1.00;;;;;;5091077;28;20501;-66
2021/04/29 04:54:06;;;;;;;57.70;4.33;;;10.40;1.00;;;;;;5090546;28;20544;-66
2021/04/29 04:56:33;;;;;;;58.90;3.90;;;10.50;1.00;;;;;;5090454;28;20442;-66
2021/04/29 04:59:00;;;;;;;57.60;4.30;;;10.50;1.00;;;;;;5091589;28;20797;-66
2021/04/29 05:01:26;;;;;;;57.27;4.00;;;10.60;1.00;;;;;;5094932;28;20554;-66
2021/04/29 05:03:54;;;;;;;59.10;4.63;;;10.60;1.00;;;;;;5094652;28;20878;-66
2021/04/29 05:06:20;;;;;;;58.20;4.10;;;10.60;1.00;;;;;;5095178;28;20541;-66
2021/04/29 05:08:47;;;;;;;57.13;4.20;;;10.60;1.00;;;;;;5094532;28;20993;-66
2021/04/29 05:11:15;;;;;;;57.20;3.90;;;10.60;1.00;;;;;;5094841;28;20492;-66
2021/04/29 05:13:41;;;;;;;59.57;4.37;;;10.60;1.00;;;;;;5094120;28;20452;-66
2021/04/29 05:16:07;;;;;;;58.23;4.27;;;10.70;1.00;;;;;;5094736;28;20873;-66
2021/04/29 05:18:34;;;;;;;57.47;4.33;;;10.70;1.00;;;;;;5094644;28;20448;-66
2021/04/29 05:21:00;;;;;;;57.30;4.07;;;10.70;1.00;;;;;;5094503;28;20512;-66
2021/04/29 05:23:26;;;;;;;57.90;4.70;;;10.80;1.00;;;;;;5094072;28;20916;-66
2021/04/29 05:25:53;;;;;;;58.23;4.53;;;10.90;1.00;;;;;;5094614;28;21149;-66
2021/04/29 05:28:20;;;;;;;58.30;3.90;;;11.00;1.00;;;;;;5094391;28;21017;-66
2021/04/29 05:30:46;;;;;;;58.43;4.97;;;11.10;1.00;;;;;;5073946;28;20581;-66
2021/04/29 05:33:12;;;;;;;58.70;4.10;;;11.20;1.00;;;;;;5093999;28;20446;-66
2021/04/29 05:35:39;;;;;;;59.07;4.37;;;11.30;1.00;;;;;;5094063;28;20442;-66
2021/04/29 05:38:05;;;;;;;58.07;4.50;;;11.40;1.00;;;;;;5094814;28;20584;-66
2021/04/29 05:40:32;;;;;;;59.03;4.60;;;11.50;1.00;;;;;;5094346;28;20497;-66
2021/04/29 05:42:58;;;;;;;57.40;4.33;;;11.50;1.00;;;;;;5094100;28;20537;-66
2021/04/29 05:45:26;;;;;;;59.10;4.20;;;11.60;1.00;;;;;;5094012;28;20536;-66
2021/04/29 05:47:52;;;;;;;58.20;4.00;;;11.60;1.00;;;;;;5094200;28;20806;-66
2021/04/29 05:50:18;;;;;;;57.87;4.00;;;11.60;1.00;;;;;;5093900;28;20930;-66
2021/04/29 05:52:45;;;;;;;58.63;4.13;;;11.70;1.00;;;;;;5093645;28;20546;-66
2021/04/29 05:55:12;;;;;;;58.00;4.10;;;11.70;1.00;;;;;;5093644;28;21049;-66
2021/04/29 05:57:39;;;;;;;58.07;4.37;;;11.80;1.00;;;;;;5093739;28;20478;-66
2021/04/29 06:00:06;;;;;;;58.47;4.83;;;11.80;1.00;;;;;;5090260;28;20472;-66
2021/04/29 06:02:34;;;;;;;57.80;4.47;;;11.90;1.00;;;;;;5093270;28;20443;-66
2021/04/29 06:05:00;;;;;;;58.57;4.87;;;11.90;1.00;;;;;;5093252;28;20478;-66
2021/04/29 06:07:27;;;;;;;58.33;4.27;;;11.80;1.00;;;;;;5094014;28;20526;-66
2021/04/29 06:09:53;;;;;;;57.47;4.50;;;11.80;1.00;;;;;;5092917;28;20489;-67
2021/04/29 06:12:19;;;;;;;60.87;4.70;;;11.70;1.00;;;;;;5093357;28;20475;-67
2021/04/29 06:14:46;;;;;;;59.60;4.40;;;11.70;1.00;;;;;;5093374;28;20537;-67
2021/04/29 06:17:12;;;;;;;59.40;4.80;;;11.70;1.00;;;;;;5093204;28;20541;-67
2021/04/29 06:19:39;;;;;;;62.63;4.97;;;11.70;1.00;;;;;;5093234;28;20549;-67
2021/04/29 06:22:06;;;;;;;58.87;4.70;;;11.70;1.00;;;;;;5093202;28;20536;-67
2021/04/29 06:24:32;;;;;;;62.13;5.20;;;11.70;1.00;;;;;;5093093;28;20450;-67
2021/04/29 06:26:58;;;;;;;58.80;5.17;;;11.70;1.00;;;;;;5093248;28;20477;-67
2021/04/29 06:29:25;;;;;;;60.03;5.30;;;11.70;1.00;;;;;;5092980;28;20442;-67
2021/04/29 06:31:51;;;;;;;59.43;5.50;;;11.70;1.00;;;;;;5081312;28;20451;-67
2021/04/29 06:34:17;;;;;;;58.77;4.80;;;11.80;1.00;;;;;;5072467;28;20458;-67
2021/04/29 06:36:45;;;;;;;58.40;4.63;;;11.90;1.00;;;;;;5073128;28;20903;-67
2021/04/29 06:39:12;;;;;;;59.40;4.70;;;11.90;1.00;;;;;;5072805;28;20454;-67
2021/04/29 06:41:38;;;;;;;61.10;5.53;;;11.90;1.00;;;;;;5072885;28;20451;-67
2021/04/29 06:44:05;;;;;;;60.77;5.10;;;12.00;1.00;;;;;;5072317;28;20479;-67
2021/04/29 06:46:31;;;;;;;59.37;5.70;;;12.10;1.00;;;;;;5072470;28;20535;-67
2021/04/29 06:48:58;;;;;;;59.60;5.27;;;12.10;1.00;;;;;;5072749;28;20538;-67
2021/04/29 06:51:24;;;;;;;59.40;6.30;;;12.10;1.00;;;;;;5072088;28;20547;-67
2021/04/29 06:53:51;;;;;;;61.70;5.30;;;12.10;1.00;;;;;;5072147;28;20479;-67
2021/04/29 06:56:18;;;;;;;58.80;5.37;;;12.20;1.00;;;;;;5080482;28;21018;-67
2021/04/29 06:58:44;;;;;;;59.07;5.27;;;12.30;1.00;;;;;;5091376;28;20488;-67
2021/04/29 07:01:10;;;;;;;63.13;5.63;;;12.50;1.00;;;;;;5091768;28;20501;-67
2021/04/29 07:03:37;;;;;;;63.27;5.53;;;12.60;1.00;;;;;;5091980;28;20449;-67
2021/04/29 07:06:03;;;;;;;59.07;5.90;;;12.80;1.00;;;;;;5092495;28;20934;-67
2021/04/29 07:08:30;;;;;;;61.07;5.77;;;13.00;1.00;;;;;;5090166;28;20537;-67
2021/04/29 07:10:57;;;;;;;60.50;5.83;;;13.20;1.00;;;;;;5078383;28;20522;-67
2021/04/29 07:13:23;;;;;;;61.60;6.00;;;13.40;1.00;;;;;;5071855;28;20545;-67
2021/04/29 07:15:49;;;;;;;65.30;6.63;;;13.40;1.00;;;;;;5071633;28;20986;-67
2021/04/29 07:18:16;;;;;;;62.03;7.73;;;13.50;1.00;;;;;;5072133;28;20530;-67
2021/04/29 07:20:42;;;;;;;63.73;7.20;;;13.70;1.00;;;;;;5071775;28;20467;-67
2021/04/29 07:23:09;;;;;;;61.60;7.70;;;13.90;1.00;;;;;;5071185;28;20449;-67
2021/04/29 07:25:37;;;;;;;60.50;7.00;;;13.90;1.00;;;;;;5071680;28;20831;-67
2021/04/29 07:28:05;;;;;;;60.13;6.70;;;13.90;1.00;;;;;;5071855;28;20447;-67
2021/04/29 07:30:32;;;;;;;62.17;7.10;;;14.00;1.00;;;;;;5071938;28;20491;-67
2021/04/29 07:32:58;;;;;;;63.53;8.13;;;14.10;1.00;;;;;;5071477;28;20479;-67
2021/04/29 07:35:26;;;;;;;61.00;7.60;;;14.20;1.00;;;;;;5072004;28;20867;-67
2021/04/29 07:37:52;;;;;;;62.70;7.30;;;14.20;1.00;;;;;;5070735;28;20458;-67
2021/04/29 07:40:18;;;;;;;61.77;7.40;;;14.30;1.00;;;;;;5068914;28;20495;-67
2021/04/29 07:42:45;;;;;;;64.00;7.90;;;14.40;1.00;;;;;;5071176;28;20538;-67
2021/04/29 07:45:13;;;;;;;66.23;8.00;;;14.50;1.00;;;;;;5071630;28;20797;-67
2021/04/29 07:47:39;;;;;;;62.10;7.30;;;14.70;1.00;;;;;;5071881;28;20876;-67
2021/04/29 07:50:07;;;;;;;61.40;7.33;;;14.60;1.00;;;;;;5071568;28;20921;-67
2021/04/29 07:52:34;;;;;;;60.73;7.10;;;14.50;1.00;;;;;;5071230;28;20458;-67
2021/04/29 07:55:01;;;;;;;59.47;6.73;;;14.40;1.00;;;;;;5071094;28;20447;-67
2021/04/29 07:57:27;;;;;;;61.67;7.80;;;14.30;1.00;;;;;;5070409;28;20443;-67
2021/04/29 07:59:54;;;;;;;61.83;7.83;;;14.30;1.00;;;;;;5070721;28;20550;-67
2021/04/29 08:02:21;;;;;;;63.20;8.13;;;14.30;1.00;;;;;;5071302;28;20453;-67
2021/04/29 08:04:47;;;;;;;63.33;7.67;;;14.30;1.00;;;;;;5071316;28;20888;-67
2021/04/29 08:07:13;;;;;;;62.10;7.77;;;14.40;1.00;;;;;;5071746;28;20483;-67
2021/04/29 08:09:40;;;;;;;61.70;7.77;;;14.60;1.00;;;;;;5071068;28;20546;-67
2021/04/29 08:12:06;;;;;;;60.97;7.50;;;14.80;1.00;;;;;;5068678;28;20829;-66
2021/04/29 08:14:32;;;;;;;61.37;7.90;;;15.00;1.00;;;;;;5071265;28;20935;-67
2021/04/29 08:16:59;;;;;;;63.97;8.97;;;15.10;1.00;;;;;;5071393;28;20536;-67
2021/04/29 08:19:26;;;;;;;61.57;8.03;;;15.00;1.00;;;;;;5071343;28;20471;-67
2021/04/29 08:21:52;;;;;;;64.00;8.17;;;15.00;1.00;;;;;;5071175;28;20525;-67
2021/04/29 08:24:19;;;;;;;60.50;6.97;;;15.00;1.00;;;;;;5071095;28;20490;-67
2021/04/29 08:26:45;;;;;;;62.60;7.80;;;15.10;1.00;;;;;;5071387;28;20443;-67
2021/04/29 08:29:11;;;;;;;63.20;8.60;;;15.10;1.00;;;;;;5071309;28;20538;-67
2021/04/29 08:31:38;;;;;;;62.13;7.80;;;15.20;1.00;;;;;;5071297;28;20575;-67
2021/04/29 08:34:05;;;;;;;64.63;8.40;;;15.60;1.00;;;;;;5073743;28;20456;-67
2021/04/29 08:36:33;;;;;;;63.10;8.90;;;16.00;1.00;;;;;;5075041;28;20531;-68
2021/04/29 08:39:02;;;;;;;63.00;8.50;;;16.30;1.00;;;;;;5085993;28;20816;-67
2021/04/29 08:41:29;;;;;;;61.77;7.87;;;16.30;1.00;;;;;;5089781;28;20469;-68
2021/04/29 08:43:56;;;;;;;62.37;8.17;;;16.40;1.00;;;;;;5079821;28;20450;-67
2021/04/29 08:46:22;;;;;;;66.80;9.60;;;16.60;1.00;;;;;;5095255;28;21003;-68
2021/04/29 08:48:53;;;;;;;60.80;7.83;;;16.50;1.00;;;;;;5095699;28;20537;-68
2021/04/29 08:51:20;;;;;;;63.23;8.03;;;16.40;1.00;;;;;;5095009;28;20617;-68
2021/04/29 08:53:48;;;;;;;62.70;8.80;;;16.40;1.00;;;;;;5094467;28;20479;-68
2021/04/29 08:56:15;;;;;;;61.40;7.73;;;16.60;1.00;;;;;;5094975;28;20936;-68
2021/04/29 08:58:41;;;;;;;60.97;8.47;;;16.90;1.00;;;;;;5095118;28;20954;-68
2021/04/29 09:01:09;;;;;;;63.63;9.00;;;17.30;1.00;;;;;;5095008;28;20459;-68
2021/04/29 09:03:35;;;;;;;63.10;9.43;;;17.50;1.00;;;;;;5094391;28;20502;-67
2021/04/29 09:06:04;;;;;;;62.73;9.27;;;17.80;1.00;;;;;;5094900;28;20451;-68
2021/04/29 09:08:33;;;;;;;62.30;8.47;;;17.60;1.00;;;;;;5094867;28;20452;-68
2021/04/29 09:11:09;;;;;;;63.67;9.20;;;17.40;1.00;;;;;;5094823;28;20954;-68
2021/04/29 09:13:35;;;;;;;65.03;8.93;;;17.20;1.00;;;;;;5094324;28;20883;-67
2021/04/29 09:16:07;;;;;;;62.30;8.60;;;17.00;1.00;;;;;;5093927;28;20458;-67
2021/04/29 09:18:34;;;;;;;65.70;9.40;;;16.90;1.00;;;;;;5081576;28;20455;-66
2021/04/29 09:21:05;;;;;;;64.90;9.80;;;16.80;1.00;;;;;;5087263;28;20548;-66
2021/04/29 09:23:39;;;;;;;63.93;9.63;;;16.70;1.00;;;;;;5093996;28;20454;-66
2021/04/29 09:26:08;;;;;;;63.67;9.57;;;16.60;1.00;;;;;;5094523;28;20527;-66
2021/04/29 09:28:41;;;;;;;65.23;8.90;;;16.40;1.00;;;;;;5094488;28;20525;-66
2021/04/29 09:31:12;;;;;;;62.47;8.50;;;16.30;1.00;;;;;;5094208;28;20565;-67
2021/04/29 09:33:40;;;;;;;60.47;8.23;;;16.10;1.00;;;;;;5094074;28;20454;-67
2021/04/29 09:36:08;;;;;;;65.30;9.37;;;16.00;1.00;;;;;;5094329;28;20541;-67
2021/04/29 09:38:39;;;;;;;65.00;9.07;;;15.90;1.00;;;;;;5093961;28;20473;-66
2021/04/29 09:41:07;;;;;;;63.90;9.60;;;15.70;1.00;;;;;;5094293;28;20477;-67
2021/04/29 09:43:35;;;;;;;61.37;9.33;;;15.40;1.00;;;;;;5093405;28;20454;-67
2021/04/29 09:46:04;;;;;;;62.90;10.40;;;15.30;1.00;;;;;;5093188;28;20542;-67
2021/04/29 09:48:34;;;;;;;62.97;8.97;;;15.00;1.00;;;;;;5094099;28;20453;-67
2021/04/29 09:51:01;;;;;;;65.00;10.47;;;14.50;1.00;;;;;;5093866;28;20839;-68
2021/04/29 09:53:38;;;;;;;64.70;9.37;;;14.20;1.00;;;;;;5093716;28;20533;-68
2021/04/29 09:56:09;;;;;;;64.07;8.77;;;13.80;1.00;;;;;;5093848;28;20450;-67
2021/04/29 09:58:36;;;;;;;63.10;9.67;;;13.60;1.00;;;;;;5094470;28;20482;-67
2021/04/29 10:01:06;;;;;;;63.87;9.70;;;13.50;1.00;;;;;;5093632;28;20504;-67
2021/04/29 10:03:33;;;;;;;62.37;9.40;;;13.30;1.00;;;;;;5093390;28;20449;-68
2021/04/29 10:06:00;;;;;;;61.57;8.07;;;13.30;1.00;;;;;;5093795;28;20568;-67
2021/04/29 10:08:27;;;;;;;62.47;8.27;;;13.00;1.00;;;;;;5093814;28;20446;-67
2021/04/29 10:10:55;;;;;;;60.60;8.10;;;12.80;1.00;;;;;;5093465;28;20493;-67
2021/04/29 10:13:29;;;;;;;62.40;9.27;;;12.60;1.00;;;;;;5093419;28;20529;-67
2021/04/29 10:15:57;;;;;;;61.60;8.97;;;12.70;1.00;;;;;;5094059;28;20443;-67
2021/04/29 10:18:24;;;;;;;63.80;9.20;;;13.10;1.00;;;;;;5093827;28;20529;-67
2021/04/29 10:20:52;;;;;;;62.27;9.17;;;13.50;1.00;;;;;;5093342;28;20985;-67
2021/04/29 10:23:20;;;;;;;65.80;10.00;;;14.20;1.00;;;;;;5092854;28;21072;-67
2021/04/29 10:25:51;;;;;;;60.50;7.93;;;15.20;1.00;;;;;;5093530;28;20875;-67
2021/04/29 10:28:33;;;;;;;64.13;7.77;;;15.80;1.00;;;;;;5093480;28;20525;-67
2021/04/29 10:31:02;;;;;;;60.90;8.63;;;16.30;1.00;;;;;;5093152;28;20561;-67
2021/04/29 10:33:35;;;;;;;62.40;9.30;;;16.60;1.00;;;;;;5092831;28;20452;-67
2021/04/29 10:36:02;;;;;;;62.60;8.90;;;16.70;1.00;;;;;;5092037;28;20998;-67
2021/04/29 10:38:32;;;;;;;63.30;8.37;;;16.80;1.00;;;;;;5093454;28;20894;-67
2021/04/29 10:41:00;;;;;;;64.63;8.70;;;16.90;1.00;;;;;;5091272;28;20874;-67
2021/04/29 10:43:36;;;;;;;63.47;8.90;;;16.90;1.00;;;;;;5092562;28;20505;-67
2021/04/29 10:46:05;;;;;;;63.30;8.10;;;16.80;1.00;;;;;;5092838;28;20485;-67
2021/04/29 10:48:33;;;;;;;60.70;7.73;;;16.80;1.00;;;;;;5093045;28;20543;-67
2021/04/29 10:51:11;;;;;;;68.23;8.67;;;16.80;1.00;;;;;;5092522;28;20492;-67
2021/04/29 10:53:39;;;;;;;66.87;10.23;;;16.60;1.00;;;;;;5092375;28;20447;-67
2021/04/29 10:56:11;;;;;;;60.43;8.80;;;16.60;1.00;;;;;;5092479;28;20478;-67
2021/04/29 10:58:38;;;;;;;61.47;9.10;;;16.70;1.00;;;;;;5092652;28;20879;-67
2021/04/29 11:01:10;;;;;;;62.83;8.87;;;16.80;1.00;;;;;;5093077;28;21089;-66
2021/04/29 11:03:37;;;;;;;65.07;8.60;;;17.00;1.00;;;;;;5092250;28;20447;-66
2021/04/29 11:06:06;;;;;;;62.60;7.63;;;17.30;1.00;;;;;;5092638;28;20475;-67
2021/04/29 11:08:37;;;;;;;60.77;7.20;;;17.90;1.00;;;;;;5092683;28;20532;-67
2021/04/29 11:11:04;;;;;;;60.20;7.17;;;18.50;1.00;;;;;;5091371;28;21086;-66
2021/04/29 11:13:31;;;;;;;59.20;6.53;;;18.10;1.00;;;;;;5089380;28;20535;-67
2021/04/29 11:15:59;;;;;;;58.13;6.37;;;17.40;1.00;;;;;;5092305;28;20940;-67
2021/04/29 11:18:26;;;;;;;59.30;6.13;;;16.90;1.00;;;;;;5092617;28;20538;-67
2021/04/29 11:20:54;;;;;;;59.90;6.37;;;16.40;1.00;;;;;;5092287;28;20463;-67
2021/04/29 11:23:25;;;;;;;59.80;6.53;;;16.20;1.00;;;;;;5091847;28;20451;-67
2021/04/29 11:26:03;;;;;;;62.53;6.43;;;16.40;1.00;;;;;;5091810;28;20455;-67
2021/04/29 11:28:30;;;;;;;63.10;6.57;;;16.20;1.00;;;;;;5092579;28;20484;-67
2021/04/29 11:30:56;;;;;;;59.10;6.23;;;16.20;1.00;;;;;;5092072;28;20561;-67
2021/04/29 11:33:31;;;;;;;61.60;6.00;;;16.00;1.00;;;;;;5091832;28;20882;-67
2021/04/29 11:35:58;;;;;;;59.50;7.10;;;15.70;1.00;;;;;;5091889;28;20508;-67
2021/04/29 11:38:24;;;;;;;60.87;6.47;;;15.80;1.00;;;;;;5092168;28;20450;-67
2021/04/29 11:40:50;;;;;;;65.30;6.83;;;17.30;1.00;;;;;;5091887;28;20551;-67
2021/04/29 11:43:17;;;;;;;61.27;6.07;;;18.30;1.00;;;;;;5090491;28;20449;-67
2021/04/29 11:45:45;;;;;;;61.00;6.27;;;18.20;1.00;;;;;;5089320;28;20544;-67
2021/04/29 11:48:13;;;;;;;59.80;6.40;;;18.00;1.00;;;;;;5072468;28;20876;-67
2021/04/29 11:50:44;;;;;;;58.60;6.17;;;17.70;1.00;;;;;;5071697;28;20953;-67
2021/04/29 11:53:11;;;;;;;59.17;5.97;;;17.50;1.00;;;;;;5071492;28;20451;-67
2021/04/29 11:55:39;;;;;;;61.27;6.77;;;17.10;1.00;;;;;;5071332;28;20521;-67
2021/04/29 11:58:08;;;;;;;59.00;6.67;;;16.80;1.00;;;;;;5071596;28;20455;-67
2021/04/29 12:00:36;;;;;;;59.07;6.20;;;16.90;1.00;;;;;;5071535;28;20567;-67
2021/04/29 12:03:06;;;;;;;61.03;6.50;;;17.20;1.00;;;;;;5071172;28;20448;-67
2021/04/29 12:05:38;;;;;;;59.50;6.87;;;17.40;1.00;;;;;;5071153;28;20460;-67
2021/04/29 12:08:09;;;;;;;65.40;6.70;;;17.30;1.00;;;;;;5070768;28;20544;-67
2021/04/29 12:10:48;;;;;;;59.17;6.73;;;17.20;1.00;;;;;;5071336;28;20576;-67
2021/04/29 12:13:15;;;;;;;60.37;6.20;;;17.40;1.00;;;;;;5071099;28;20494;-67
2021/04/29 12:15:42;;;;;;;61.17;6.77;;;17.40;1.00;;;;;;5069598;28;20540;-67
2021/04/29 12:18:13;;;;;;;60.50;6.27;;;17.30;1.00;;;;;;5091157;28;20445;-67
2021/04/29 12:20:40;;;;;;;59.13;5.97;;;17.20;1.00;;;;;;5091330;28;20464;-67
2021/04/29 12:23:10;;;;;;;61.00;5.70;;;17.60;1.00;;;;;;5091212;28;20884;-67
2021/04/29 12:25:36;;;;;;;58.70;5.43;;;18.60;1.00;;;;;;5091313;28;20484;-67
2021/04/29 12:28:16;;;;;;;58.10;5.20;;;20.00;1.00;;;;;;5091386;28;20537;-67
2021/04/29 12:30:42;;;;;;;58.47;5.63;;;20.30;1.00;;;;;;5091390;28;20575;-67
2021/04/29 12:33:20;;;;;;;58.73;5.33;;;20.20;1.00;;;;;;5091098;28;20481;-67
2021/04/29 12:35:47;;;;;;;61.30;5.10;;;21.10;1.00;;;;;;5091705;28;20631;-67
2021/04/29 12:38:15;;;;;;;61.10;5.37;;;21.40;1.00;;;;;;5091368;28;20450;-67
2021/04/29 12:40:41;;;;;;;59.07;4.83;;;21.30;1.00;;;;;;5091141;28;20515;-67
2021/04/29 12:43:10;;;;;;;59.57;5.00;;;20.90;1.00;;;;;;5091138;28;20504;-67
2021/04/29 12:45:53;;;;;;;58.33;5.13;;;20.10;1.00;;;;;;5091203;28;20533;-67